Date,TemperatureHighF,TemperatureAvgF,TemperatureLowF,DewpointHighF,DewpointAvgF,DewpointLowF,HumidityHigh,HumidityAvg,HumidityLow,PressureMaxIn,PressureMinIn,WindSpeedMaxMPH,WindSpeedAvgMPH,GustSpeedMaxMPH,PrecipitationSumIn
2013-10-1,86,65,49,59,49,41,81,59,29,29.89,29.65,13,3,20,0.00
2013-10-2,75,63,48,46,38,31,72,44,24,30.04,29.71,10,2,13,0.00
2013-10-3,68,57,49,45,39,36,72,52,33,30.06,29.68,21,3,25,0.04
2013-10-4,67,57,47,47,40,36,73,55,35,30.18,30.04,11,3,12,0.00
2013-10-5,80,62,43,54,42,32,91,55,23,30.12,29.80,8,2,10,0.00
2013-10-6,86,67,47,50,39,30,76,42,16,29.89,29.56,10,2,12,0.00
2013-10-7,71,63,54,50,43,36,62,49,36,29.92,29.62,13,3,15,0.00
2013-10-8,71,61,50,53,46,37,85,61,30,30.12,29.89,13,2,17,0.00
2013-10-9,81,63,45,54,42,32,89,55,22,30.12,29.86,9,2,12,0.00
2013-10-10,89,70,48,51,40,32,76,40,16,29.95,29.56,12,3,19,0.00
2013-10-11,73,66,58,59,51,38,80,59,34,30.01,29.56,14,3,18,0.00
2013-10-12,84,66,48,58,49,36,92,60,20,30.04,29.71,9,2,13,0.00
2013-10-13,91,76,57,60,46,27,90,45,10,29.77,29.36,15,4,20,0.00
2013-10-14,70,62,54,59,42,35,82,51,29,30.09,29.62,9,2,13,0.12
2013-10-15,73,58,42,44,36,29,79,49,24,30.18,29.98,9,2,13,0.00
2013-10-16,80,63,42,44,36,28,76,43,18,30.09,29.80,10,2,15,0.00
2013-10-17,90,70,49,50,38,23,73,37,11,29.89,29.56,16,4,25,0.00
2013-10-18,68,62,54,45,35,21,62,37,22,30.30,29.98,13,4,15,0.00
2013-10-19,73,60,44,54,44,37,88,60,34,30.33,30.15,9,2,12,0.00
2013-10-20,85,68,51,60,52,40,93,61,23,30.18,29.95,8,2,12,0.00
2013-10-21,90,73,55,62,50,41,87,52,20,30.06,29.83,9,2,15,0.00
2013-10-22,86,73,62,63,58,52,77,60,41,30.01,29.86,7,1,10,0.00
2013-10-23,92,79,67,61,50,31,80,42,16,29.86,29.56,14,3,20,0.00
2013-10-24,79,69,58,44,36,24,58,32,16,30.04,29.77,12,3,13,0.00
2013-10-25,75,60,43,44,33,22,61,38,21,30.15,29.95,9,2,10,0.00
2013-10-26,74,60,45,49,41,32,80,55,23,30.12,29.98,11,2,12,0.00
2013-10-27,76,62,49,55,48,40,89,62,30,30.18,30.04,8,2,11,0.00
2013-10-28,80,66,54,58,52,46,88,62,31,30.12,29.86,6,1,10,0.00
2013-10-29,85,63,52,59,54,46,89,74,32,30.04,29.68,22,4,30,0.54
2013-10-30,70,62,57,53,49,44,82,64,42,30.15,30.04,13,4,16,0.00
2013-10-31,77,62,48,56,48,43,94,64,33,30.24,30.04,8,2,11,0.00